AirNav   Pilot Hours Calculator
 
 517 users online  

5II5 Koester Field Airport
St. Wendel, Indiana, USA

GOING TO ST. WENDEL?


FAA INFORMATION EFFECTIVE 26 JANUARY 2023

Location

FAA Identifier: 5II5
Lat/Long: 38-07-04.9800N 087-42-07.3200W
38-07.083000N 087-42.122000W
38.1180500,-87.7020333
(estimated)
Elevation: 480 ft. / 146 m (estimated)
From city: 1 mile NW of ST. WENDEL, IN
Time zone: UTC -6 (UTC -5 during Daylight Saving Time)
Zip code: 47612

Airport Operations

Airport use: Private use. Permission required prior to landing
Activation date: 09/2011
Control tower: no
ARTCC: INDIANAPOLIS CENTER
FSS: TERRE HAUTE FLIGHT SERVICE STATION
Attendance: UNATNDD
Wind indicator: yes
Segmented circle: no

Airport Communications

WX ASOS at EVV (9 nm SE): 120.2 (812-436-4681)
WX AWOS-3PT at EHR (19 nm S): 118.85 (270-826-0511)
WX AWOS-3 at CUL (20 nm W): 118.425 (618-382-3760)

Nearby radio navigation aids

VOR radial/distance  VOR name  Freq  Var
PXVr011/11.7POCKET CITY VORTAC113.3003E
OWBr316/33.9OWENSBORO VOR/DME108.6004W

 
NDB name  Hdg/Dist  Freq  Var  ID
WAYNE COUNTY116/36.925701WFWC ..-. .-- -.-.

Airport Services

Runway Information

Runway 18/36

Dimensions: 2000 x 110 ft. / 610 x 34 m
Surface: turf
RUNWAY 18  RUNWAY 36
Traffic pattern: leftleft
Displaced threshold: no600 ft.
Obstructions: none25 ft. bldg, 120 ft. from runway

Airport Ownership and Management from official FAA records

Ownership: Privately-owned
Owner: DANIEL KOESTER
5355 ST. WENDEL CYNTHIANNA ROAD
POSEYVILLE, IN 47633
Phone 812-963-6045
Manager: DANIEL KOESTER
5355 ST. WENDEL CYNTHIANNA ROAD
POSEYVILLE, IN 47633
Phone 812-483-8760

Airport Operational Statistics

Aircraft based on the field: 4
Single engine airplanes: 4
    

Additional Remarks

ALL TFC REMAIN W OF ARPT.
FOR CD CTC EVANSVILLE APCH AT 812-436-4690, WHEN APCH CLSD CTC INDIANAPOLIS ARTCC AT 317-247-2411.

Instrument Procedures

There are no published instrument procedures at 5II5.

Some nearby airports with instrument procedures:

KEVV - Evansville Regional Airport (9 nm SE)
KEHR - Henderson City-County Airport (19 nm S)
KCUL - Carmi Municipal Airport (20 nm W)
KAJG - Mount Carmel Municipal Airport (29 nm N)
KOWB - Owensboro/Daviess County Regional Airport (34 nm SE)
 
Loc | Ops | Rwys | IFR | FBO | Links
Com | Nav | Svcs | Stats | Notes
Aerial photo
No photo
 
Airport distance calculator
Flying to Koester Field Airport? Find the distance to fly.

From to 5II5

Sunrise and sunset
Times for 05-Feb-2023
 Local
(UTC-6)
 Zulu
(UTC)
Morning civil twilight06:2512:25
Sunrise06:5312:53
Sunset17:1723:17
Evening civil twilight17:4423:44

Current date and time
Zulu (UTC)  05-Feb-2023 07:54:03
Local (UTC-6)  05-Feb-2023 01:54:03
 
METAR
KEVV 
10nm SE 
050654Z AUTO 19009KT 10SM CLR 04/M04 A3016 RMK AO2 SLP215 T00441039 $
KEHR 
18nm S 
050656Z AUTO 20009KT 10SM CLR 04/M03 A3016 RMK AO2 SLP217 T00391033
KI19 
19nm E 
041915Z AUTO 22016KT 10SM CLR 04/M10 A3021 RMK AO2
KCUL 
20nm W 
050716Z AUTO 20013KT 10SM CLR 05/M03 A3014 RMK AO2
TAF
KEVV 
10nm SE 
050520Z 0506/0606 19009KT P6SM SCT250 WS020/22045KT FM051400 22015KT P6SM SCT025 BKN250 FM052200 22005KT P6SM BKN250
NOTAMs
Click for the latest NOTAMs
NOTAMs are issued by the DoD/FAA and will open in a separate window not controlled by AirNav.

 

 
 

Would you like to see your business listed on this page?

 If your business provides an interesting product or service to pilots, flight crews, aircraft, or users of the Koester Field Airport, you should consider listing it here.  To start the listing process, click on the button below
 
Add a business
 

Other Pages about Koester Field Airport

Update a link
 
Copyright © AirNav, LLC. All rights reserved. Privacy Policy  Contact